Impacts METAR Board
IDs:

KMSP - Minneapolis-St Paul, MN, US

Updated at: 0300 UTC 20 Aug 2018
Potential Impact None Slight Moderate High
Time 19/15Z 19/16Z 19/17Z 19/18Z 19/19Z 19/20Z 19/21Z 19/22Z 19/23Z 20/00Z 20/01Z 20/02Z 20/03Z
Temp76 79 82 83 84 85 86 84 84 82 81 80 78
Dewpt65 66 68 67 69 65 65 65 67 67 67 68 68
Altim29.95 29.94 29.94 29.92 29.92 29.91 29.89 29.89 29.89 29.88 29.89 29.91 29.92
VIS8 9 9 10 10 10 10 10 10 10 9 10 9
CIG300 300 300 300 300 300 300 300 300 250 250 250 250
CoverBKNBKNBKNBKNBKNBKNBKNBKNBKNOVCOVCOVCOVC
FltCatVFRVFRVFRVFRVFRVFRVFRVFRVFRVFRVFRVFRVFR
WX--------------------------
WDir14001200120170160140130130130100110
WSpd5 4 6 6 6 6 7 8 12 8 9 8 9
WGst-- -- -- -- -- -- -- -- -- -- -- -- --
Raw hourly METARs
KMSP 191453Z 14005KT 8SM BKN300 24/18 A2995 RMK AO2 SLP137 T02440183 50004
KMSP 191553Z VRB04KT 9SM BKN300 26/19 A2994 RMK AO2 SLP133 T02610189
KMSP 191653Z 12006KT 9SM SCT035 BKN300 28/20 A2994 RMK AO2 SLP133 T02780200
KMSP 191753Z VRB06KT 10SM SCT035 BKN300 28/19 A2992 RMK AO2 SLP127 T02830194 10289 20194 58008
KMSP 191853Z 12006KT 10SM FEW046 SCT060 BKN300 29/21 A2992 RMK AO2 SLP125 T02890206
KMSP 191953Z 17006KT 10SM FEW038 SCT060 BKN300 29/18 A2991 RMK AO2 SLP121 T02940183
KMSP 192053Z 16007KT 10SM FEW045 FEW065 BKN300 30/18 A2989 RMK AO2 SLP117 T03000183 58010
KMSP 192153Z 14008KT 10SM FEW045 BKN300 29/18 A2989 RMK AO2 SLP114 T02890183
KMSP 192253Z 13012KT 10SM FEW040 FEW050 BKN300 29/19 A2989 RMK AO2 SLP115 T02890194
KMSP 192353Z 13008KT 10SM FEW045 OVC250 28/19 A2988 RMK AO2 SLP115 T02780194 10300 20278 56003
KMSP 200053Z 13009KT 9SM FEW040 OVC250 27/19 A2989 RMK AO2 SLP118 T02720194
KMSP 200153Z 10008KT 10SM FEW040 FEW085 OVC250 27/20 A2991 RMK AO2 SLP123 T02670200
KMSP 200253Z 11009KT 9SM FEW040 SCT090 OVC250 26/20 A2992 RMK AO2 SLP127 TCU DSNT SE T02560200 53013



Page loaded:  03:30 UTC  |   08:30 PM Pacific  |   09:30 PM Mountain  |   10:30 PM Central  |   11:30 PM Eastern

 

ADVISORIES

FORECASTS

FORECASTS

OBSERVATIONS

USER TOOLS

ABOUT US